Time;durP1;ratioP1;P1;durP2;ratioP2;P2;SDS_P1;SDS_P2;PMS_P1;PMS_P2;Temp;Humidity;BMP_temperature;BMP_pressure;BME280_temperature;BME280_humidity;BME280_pressure;Samples;Min_cycle;Max_cycle;Signal;HPM_P1;HPM_P2
2021/08/02 00:02:28;;;;;;;7.00;6.30;;;18.20;99.90;;;;;;8320321;28;20456;-74
2021/08/02 00:06:56;;;;;;;7.90;7.10;;;18.20;99.90;;;;;;8314751;28;21312;-74
2021/08/02 00:10:59;;;;;;;8.70;6.17;;;18.20;99.90;;;;;;8322616;28;20576;-74
2021/08/02 00:15:00;;;;;;;6.37;5.87;;;18.20;99.90;;;;;;8321488;28;20447;-74
2021/08/02 00:19:02;;;;;;;7.40;6.80;;;18.20;99.90;;;;;;8316328;28;20456;-74
2021/08/02 00:23:07;;;;;;;6.73;5.90;;;18.20;99.90;;;;;;8352326;28;20451;-74
2021/08/02 00:27:10;;;;;;;11.00;6.93;;;18.20;99.90;;;;;;8321044;28;20461;-74
2021/08/02 00:31:12;;;;;;;7.87;7.07;;;18.20;99.90;;;;;;8315710;28;20509;-75
2021/08/02 00:35:13;;;;;;;7.63;6.70;;;18.30;99.90;;;;;;8315150;28;20939;-74
2021/08/02 00:39:22;;;;;;;8.90;7.60;;;18.30;99.90;;;;;;8323365;28;21423;-75
2021/08/02 00:43:23;;;;;;;9.73;8.73;;;18.30;99.90;;;;;;8328802;28;20196;-74
2021/08/02 00:47:28;;;;;;;8.80;7.90;;;18.30;99.90;;;;;;8315264;28;20497;-74
2021/08/02 00:51:52;;;;;;;12.80;7.90;;;18.30;99.90;;;;;;8318911;28;20206;-74
2021/08/02 00:55:57;;;;;;;10.13;8.27;;;18.30;99.90;;;;;;8317357;28;20437;-74
2021/08/02 01:00:05;;;;;;;10.30;9.30;;;18.30;99.90;;;;;;8313730;28;20810;-75
2021/08/02 01:04:08;;;;;;;11.20;10.10;;;18.30;99.90;;;;;;8317256;22;20503;-73
2021/08/02 01:08:14;;;;;;;11.77;9.87;;;18.30;99.90;;;;;;8282850;28;20525;-72
2021/08/02 01:12:16;;;;;;;10.53;9.43;;;18.30;99.90;;;;;;8288333;28;20445;-74
2021/08/02 01:16:19;;;;;;;9.60;8.70;;;18.30;99.90;;;;;;8278055;28;20446;-73
2021/08/02 01:20:20;;;;;;;10.80;9.80;;;18.30;99.90;;;;;;8285513;28;20427;-73
2021/08/02 01:24:21;;;;;;;11.93;9.60;;;18.30;99.90;;;;;;8291135;28;20525;-73
2021/08/02 01:28:22;;;;;;;14.50;10.43;;;18.30;99.90;;;;;;8285227;28;20196;-73
2021/08/02 01:32:23;;;;;;;13.30;10.40;;;18.30;99.90;;;;;;8288674;28;20290;-73
2021/08/02 01:36:23;;;;;;;10.40;9.47;;;18.30;99.90;;;;;;8294277;28;20813;-73
2021/08/02 01:40:24;;;;;;;12.40;10.27;;;18.30;99.90;;;;;;8293640;28;20185;-73
2021/08/02 01:44:25;;;;;;;10.80;9.57;;;18.30;99.90;;;;;;8279463;28;20187;-73
2021/08/02 01:48:50;;;;;;;10.20;9.10;;;18.20;99.90;;;;;;8273766;28;20419;-73
2021/08/02 01:53:04;;;;;;;11.80;9.80;;;18.20;99.90;;;;;;8281777;28;20196;-73
2021/08/02 01:57:11;;;;;;;10.10;8.80;;;18.30;99.90;;;;;;8278537;28;20898;-73
2021/08/02 02:01:12;;;;;;;11.23;9.33;;;18.30;99.90;;;;;;8291211;28;20474;-73
2021/08/02 02:05:17;;;;;;;10.57;9.30;;;18.30;99.90;;;;;;8293545;28;20481;-73
2021/08/02 02:09:19;;;;;;;10.33;9.20;;;18.40;99.90;;;;;;8282365;28;20582;-73
2021/08/02 02:13:24;;;;;;;9.87;8.87;;;18.40;99.90;;;;;;8277819;28;20458;-73
2021/08/02 02:17:27;;;;;;;7.60;6.93;;;18.40;99.90;;;;;;8307688;28;21110;-73
2021/08/02 02:21:29;;;;;;;9.20;8.20;;;18.50;99.90;;;;;;8283300;28;20446;-73
2021/08/02 02:25:30;;;;;;;11.20;9.37;;;18.50;99.90;;;;;;8296758;28;20439;-73
2021/08/02 02:29:33;;;;;;;10.43;9.40;;;18.50;99.90;;;;;;8284469;28;20485;-73
2021/08/02 02:33:37;;;;;;;11.43;8.83;;;18.50;99.90;;;;;;8278765;28;20452;-73
2021/08/02 02:37:38;;;;;;;9.93;8.93;;;18.50;99.90;;;;;;8292520;28;20503;-73
2021/08/02 02:41:42;;;;;;;17.60;9.87;;;18.50;99.90;;;;;;8287447;28;20446;-73
2021/08/02 02:45:45;;;;;;;12.23;9.97;;;18.40;99.90;;;;;;8282374;28;20898;-74
2021/08/02 02:49:47;;;;;;;9.70;8.60;;;18.40;99.90;;;;;;8279833;28;20462;-74
2021/08/02 02:53:49;;;;;;;9.40;8.50;;;18.40;99.90;;;;;;8293630;28;20439;-74
2021/08/02 02:57:49;;;;;;;10.47;9.47;;;18.40;99.90;;;;;;8292372;28;20546;-74
2021/08/02 03:01:52;;;;;;;17.03;9.30;;;18.40;99.90;;;;;;8285018;28;20541;-74
2021/08/02 03:05:53;;;;;;;10.90;9.80;;;18.30;99.90;;;;;;8279271;28;20227;-74
2021/08/02 03:09:54;;;;;;;9.20;8.13;;;18.30;99.90;;;;;;8312791;28;20526;-74
2021/08/02 03:13:55;;;;;;;10.27;9.27;;;18.20;99.90;;;;;;8304821;28;20446;-74
2021/08/02 03:17:56;;;;;;;11.17;10.10;;;18.20;99.90;;;;;;8286129;28;20728;-74
2021/08/02 03:21:59;;;;;;;10.63;9.10;;;18.20;99.90;;;;;;8305485;28;20445;-74
2021/08/02 03:26:14;;;;;;;9.47;7.20;;;18.10;99.90;;;;;;8287094;28;20199;-74
2021/08/02 03:30:14;;;;;;;13.73;7.80;;;18.10;99.90;;;;;;8296119;28;20565;-74
2021/08/02 03:34:20;;;;;;;7.93;7.20;;;18.20;99.90;;;;;;8301557;28;20446;-74
2021/08/02 03:38:22;;;;;;;7.50;6.90;;;18.20;99.90;;;;;;8285348;28;20197;-74
2021/08/02 03:42:24;;;;;;;8.53;7.73;;;18.20;99.90;;;;;;8295963;28;20461;-74
2021/08/02 03:46:25;;;;;;;7.90;6.83;;;18.20;99.90;;;;;;8293114;28;20454;-74
2021/08/02 03:50:26;;;;;;;17.07;9.57;;;18.30;99.90;;;;;;8301103;28;20476;-74
2021/08/02 03:54:31;;;;;;;6.90;6.30;;;18.20;99.90;;;;;;8292947;28;20455;-74
2021/08/02 03:58:31;;;;;;;8.17;7.37;;;18.20;99.90;;;;;;8294248;28;20203;-74
2021/08/02 04:02:32;;;;;;;8.80;7.20;;;18.10;99.90;;;;;;8293720;28;20453;-73
2021/08/02 04:06:34;;;;;;;8.60;7.00;;;18.10;99.90;;;;;;8291704;28;20230;-74
2021/08/02 04:10:34;;;;;;;7.67;6.27;;;18.10;99.90;;;;;;8295344;28;20218;-73
2021/08/02 04:14:36;;;;;;;7.90;7.10;;;18.10;99.90;;;;;;8285663;28;20447;-75
2021/08/02 04:18:37;;;;;;;6.17;5.57;;;18.10;99.90;;;;;;8300844;28;20187;-73
2021/08/02 04:22:37;;;;;;;10.63;7.13;;;18.10;99.90;;;;;;8293840;28;20457;-74
2021/08/02 04:26:38;;;;;;;8.40;5.93;;;18.10;99.90;;;;;;8292061;28;20188;-74
2021/08/02 04:30:39;;;;;;;10.10;6.77;;;18.20;99.90;;;;;;8277159;28;20211;-74
2021/08/02 04:34:39;;;;;;;5.93;5.40;;;18.20;99.90;;;;;;8277372;28;20182;-74
2021/08/02 04:38:40;;;;;;;6.73;6.17;;;18.30;99.90;;;;;;8286425;28;20184;-74
2021/08/02 04:42:40;;;;;;;6.20;5.70;;;18.30;99.90;;;;;;8287807;28;20198;-75
2021/08/02 04:46:41;;;;;;;7.60;6.90;;;18.40;99.90;;;;;;8305108;28;20212;-75
2021/08/02 04:50:43;;;;;;;8.53;7.53;;;18.30;99.90;;;;;;8285173;28;20222;-75
2021/08/02 04:54:44;;;;;;;7.63;6.87;;;18.30;99.90;;;;;;8303540;28;20266;-75
2021/08/02 04:58:44;;;;;;;9.67;8.63;;;18.30;99.90;;;;;;8284613;28;20447;-75
2021/08/02 05:02:45;;;;;;;9.00;8.10;;;18.40;99.90;;;;;;8289107;28;20187;-75
2021/08/02 05:06:46;;;;;;;11.40;9.50;;;18.40;99.90;;;;;;8297286;28;20227;-75
2021/08/02 05:10:47;;;;;;;12.70;9.27;;;18.50;99.90;;;;;;8282216;28;20208;-73
2021/08/02 05:14:48;;;;;;;10.60;9.50;;;18.50;99.90;;;;;;8277515;28;20209;-74
2021/08/02 05:18:48;;;;;;;12.83;9.67;;;18.50;99.90;;;;;;8275985;28;20496;-76
2021/08/02 05:22:50;;;;;;;12.93;9.93;;;18.50;99.90;;;;;;8280243;28;20206;-76
2021/08/02 05:26:51;;;;;;;11.73;10.50;;;18.60;99.90;;;;;;8296751;28;20232;-76
2021/08/02 05:30:52;;;;;;;12.37;9.60;;;18.60;99.90;;;;;;8279402;28;20466;-78
2021/08/02 05:34:52;;;;;;;12.80;10.43;;;18.60;99.90;;;;;;8290997;28;20180;-76
2021/08/02 05:38:53;;;;;;;17.57;11.13;;;18.70;99.90;;;;;;8278967;28;20191;-75
2021/08/02 05:42:53;;;;;;;11.80;10.00;;;18.80;99.90;;;;;;8280959;28;20206;-76
2021/08/02 05:46:54;;;;;;;15.17;10.20;;;18.90;99.90;;;;;;8284889;28;20194;-74
2021/08/02 05:50:55;;;;;;;9.70;8.80;;;18.90;99.90;;;;;;8284668;28;20208;-74
2021/08/02 05:54:55;;;;;;;10.13;7.60;;;19.00;99.90;;;;;;8290122;28;20188;-74
2021/08/02 05:58:56;;;;;;;12.80;9.20;;;19.00;99.90;;;;;;8288186;28;20192;-75
2021/08/02 06:02:56;;;;;;;9.30;8.37;;;19.00;99.90;;;;;;8292890;28;20191;-75
2021/08/02 06:06:57;;;;;;;12.20;9.30;;;19.10;99.90;;;;;;8281019;28;20211;-74
2021/08/02 06:10:58;;;;;;;10.80;9.10;;;19.20;99.90;;;;;;8277475;28;20250;-74
2021/08/02 06:14:58;;;;;;;9.53;8.53;;;19.30;99.90;;;;;;8297904;28;20199;-74
2021/08/02 06:18:59;;;;;;;11.37;10.00;;;19.40;99.90;;;;;;8276220;28;20185;-74
2021/08/02 06:22:59;;;;;;;8.50;7.60;;;19.60;99.90;;;;;;8288432;28;20663;-75
2021/08/02 06:27:00;;;;;;;9.03;8.13;;;19.70;99.90;;;;;;8283653;28;20184;-75
2021/08/02 06:31:01;;;;;;;8.60;7.40;;;19.70;99.90;;;;;;8293389;28;20207;-75
2021/08/02 06:35:02;;;;;;;10.73;8.60;;;19.70;99.40;;;;;;8291454;28;20186;-75
2021/08/02 06:39:03;;;;;;;13.17;8.87;;;19.80;99.40;;;;;;8287168;28;20447;-74
2021/08/02 06:43:04;;;;;;;15.20;9.80;;;19.90;99.40;;;;;;8296202;28;20200;-74
2021/08/02 06:47:05;;;;;;;10.53;9.20;;;20.20;99.20;;;;;;8279837;28;20448;-74
2021/08/02 06:51:07;;;;;;;11.27;9.07;;;20.40;98.90;;;;;;8288339;28;20238;-74
2021/08/02 06:55:08;;;;;;;16.07;9.80;;;20.60;98.60;;;;;;8305637;28;20264;-75
2021/08/02 06:59:09;;;;;;;14.70;9.20;;;20.70;98.20;;;;;;8296309;28;21190;-76
2021/08/02 07:03:10;;;;;;;9.13;8.13;;;20.80;98.00;;;;;;8294171;28;21082;-74
2021/08/02 07:07:10;;;;;;;11.50;9.27;;;21.00;97.60;;;;;;8288949;28;20187;-74
2021/08/02 07:11:11;;;;;;;12.33;9.50;;;21.10;97.20;;;;;;8292365;28;20256;-74
2021/08/02 07:15:11;;;;;;;12.20;10.33;;;21.20;97.20;;;;;;8283209;28;20331;-75
2021/08/02 07:19:12;;;;;;;14.33;9.40;;;21.20;97.30;;;;;;8294399;28;20210;-74
2021/08/02 07:23:12;;;;;;;11.40;8.33;;;21.10;97.20;;;;;;8279713;28;20198;-76
2021/08/02 07:27:13;;;;;;;11.33;10.13;;;21.00;97.30;;;;;;8282686;28;20211;-74
2021/08/02 07:31:15;;;;;;;13.10;10.77;;;21.00;97.50;;;;;;8289392;28;20211;-74
2021/08/02 07:35:15;;;;;;;12.87;9.70;;;21.10;97.60;;;;;;8273671;28;20184;-74
2021/08/02 07:39:16;;;;;;;15.93;10.40;;;21.10;97.50;;;;;;8281694;28;20425;-73
2021/08/02 07:43:17;;;;;;;14.53;10.30;;;21.10;97.20;;;;;;8292278;28;20194;-75
2021/08/02 07:47:17;;;;;;;10.90;9.80;;;21.10;97.30;;;;;;8290993;28;20710;-74
2021/08/02 07:51:19;;;;;;;12.00;9.70;;;21.10;97.20;;;;;;8281555;28;20201;-73
2021/08/02 07:55:20;;;;;;;19.87;12.87;;;21.00;97.80;;;;;;8284453;28;20752;-74
2021/08/02 07:59:21;;;;;;;20.20;13.67;;;20.80;99.00;;;;;;8277937;28;21026;-74
2021/08/02 08:03:22;;;;;;;19.37;13.70;;;20.60;99.90;;;;;;8296267;28;20236;-74
2021/08/02 08:07:23;;;;;;;18.00;14.37;;;20.30;99.90;;;;;;8276505;28;20699;-74
2021/08/02 08:11:24;;;;;;;24.10;16.17;;;20.10;99.90;;;;;;8283808;28;20969;-75
2021/08/02 08:15:26;;;;;;;20.50;15.17;;;19.90;99.90;;;;;;8298255;28;20182;-75
2021/08/02 08:19:26;;;;;;;26.57;17.80;;;19.90;99.90;;;;;;8286143;28;20447;-75
2021/08/02 08:23:29;;;;;;;17.27;13.40;;;19.90;99.90;;;;;;8295108;28;20449;-74
2021/08/02 08:27:30;;;;;;;16.17;12.07;;;19.90;99.90;;;;;;8283689;28;20184;-74
2021/08/02 08:31:30;;;;;;;12.73;10.57;;;20.00;99.90;;;;;;8282611;28;20462;-75
2021/08/02 08:35:31;;;;;;;15.60;10.57;;;19.90;99.90;;;;;;8304142;28;20264;-74
2021/08/02 08:39:32;;;;;;;9.77;8.77;;;19.90;99.90;;;;;;8291813;28;20192;-74
2021/08/02 08:43:33;;;;;;;12.23;9.73;;;19.90;99.90;;;;;;8290200;28;20655;-74
2021/08/02 08:47:35;;;;;;;15.10;10.03;;;19.90;99.90;;;;;;8293465;28;20190;-75
2021/08/02 08:51:38;;;;;;;11.70;10.37;;;20.10;99.90;;;;;;8296534;28;20475;-74
2021/08/02 08:55:43;;;;;;;13.23;10.90;;;20.40;99.90;;;;;;8288445;28;20479;-75
2021/08/02 08:59:49;;;;;;;15.10;11.37;;;21.10;99.90;;;;;;8279150;28;20417;-75
2021/08/02 09:03:51;;;;;;;10.50;8.10;;;21.60;99.90;;;;;;8295761;28;20792;-75
2021/08/02 09:07:53;;;;;;;10.20;9.13;;;21.80;98.80;;;;;;8277540;28;20450;-75
2021/08/02 09:12:10;;;;;;;11.03;8.70;;;21.80;98.20;;;;;;8272206;28;20504;-74
2021/08/02 09:16:12;;;;;;;7.97;7.17;;;21.80;98.40;;;;;;8281183;28;20498;-74
2021/08/02 09:20:23;;;;;;;12.83;7.27;;;21.90;98.60;;;;;;8283361;28;20444;-75
2021/08/02 09:24:32;;;;;;;9.20;6.70;;;22.00;97.90;;;;;;8291174;28;20449;-75
2021/08/02 09:28:33;;;;;;;6.37;5.73;;;22.10;97.90;;;;;;8287785;28;20434;-76
2021/08/02 09:33:03;;;;;;;5.60;5.10;;;22.10;97.50;;;;;;8274110;28;20426;-75
2021/08/02 09:37:04;;;;;;;3.60;3.30;;;22.00;97.20;;;;;;8279869;28;20193;-74
2021/08/02 09:41:05;;;;;;;4.63;4.20;;;21.80;98.10;;;;;;8283923;28;20542;-74
2021/08/02 09:45:06;;;;;;;4.03;3.73;;;22.00;97.90;;;;;;8280937;28;20426;-74
2021/08/02 09:49:07;;;;;;;4.50;3.80;;;22.30;97.50;;;;;;8268743;28;20209;-75
2021/08/02 09:53:07;;;;;;;3.53;3.33;;;22.80;97.00;;;;;;8276875;28;20173;-74
2021/08/02 09:57:08;;;;;;;4.47;4.07;;;23.50;96.40;;;;;;8269860;28;20176;-75
2021/08/02 10:01:13;;;;;;;6.23;3.80;;;23.90;95.70;;;;;;8273840;28;20744;-75
2021/08/02 10:05:15;;;;;;;5.50;4.37;;;23.90;94.80;;;;;;8279661;28;20336;-75
2021/08/02 10:09:16;;;;;;;4.70;4.30;;;24.00;95.20;;;;;;8276482;28;20467;-75
2021/08/02 10:13:28;;;;;;;3.90;3.60;;;24.30;94.90;;;;;;8268447;28;20443;-75
2021/08/02 10:17:30;;;;;;;2.93;2.70;;;24.70;93.60;;;;;;8276120;28;20192;-75
2021/08/02 10:21:45;;;;;;;3.80;3.50;;;24.70;93.10;;;;;;8285349;28;20484;-75
2021/08/02 10:25:45;;;;;;;4.03;3.73;;;24.60;92.80;;;;;;8281805;28;20446;-75
2021/08/02 10:29:46;;;;;;;3.23;3.00;;;24.60;93.00;;;;;;8280787;28;20500;-74
2021/08/02 10:33:47;;;;;;;3.83;3.50;;;24.50;92.60;;;;;;8271238;28;20238;-74
2021/08/02 10:37:59;;;;;;;3.63;3.40;;;24.30;92.80;;;;;;8272017;28;20204;-75
2021/08/02 10:42:12;;;;;;;4.33;3.93;;;24.80;92.40;;;;;;8273604;28;20239;-75
2021/08/02 10:46:21;;;;;;;4.97;2.90;;;25.30;91.80;;;;;;8269308;28;20471;-74
2021/08/02 10:50:28;;;;;;;3.40;3.10;;;25.70;91.30;;;;;;8287976;28;20466;-74
2021/08/02 10:54:39;;;;;;;5.40;3.60;;;25.80;90.40;;;;;;8268669;28;20459;-75
2021/08/02 10:58:43;;;;;;;4.50;3.67;;;25.70;89.80;;;;;;8275398;28;20446;-76
2021/08/02 11:02:52;;;;;;;4.73;4.37;;;25.60;89.90;;;;;;8277895;28;20475;-75
2021/08/02 11:06:54;;;;;;;6.20;5.20;;;25.70;90.00;;;;;;8287407;28;20541;-75
2021/08/02 11:10:55;;;;;;;5.20;4.70;;;25.70;90.00;;;;;;8282069;28;20507;-74
2021/08/02 11:14:56;;;;;;;6.17;5.00;;;25.80;89.00;;;;;;8274238;28;20451;-75
2021/08/02 11:18:56;;;;;;;5.90;5.30;;;25.70;88.20;;;;;;8286829;28;20189;-75
2021/08/02 11:23:00;;;;;;;7.23;5.30;;;25.50;87.70;;;;;;8283355;28;20183;-74
2021/08/02 11:27:04;;;;;;;5.37;4.83;;;25.30;87.90;;;;;;8278287;28;20208;-77
2021/08/02 11:31:05;;;;;;;8.43;7.00;;;24.80;90.20;;;;;;8286371;28;20508;-76
2021/08/02 11:35:07;;;;;;;13.67;6.80;;;24.30;91.50;;;;;;8302083;28;20857;-74
2021/08/02 11:39:15;;;;;;;11.47;8.30;;;23.50;93.40;;;;;;8279179;28;20474;-75
2021/08/02 11:43:16;;;;;;;8.23;6.97;;;23.00;95.30;;;;;;8292853;28;20431;-75
2021/08/02 11:47:23;;;;;;;12.13;7.20;;;23.00;96.20;;;;;;8284256;28;20604;-76
2021/08/02 11:51:24;;;;;;;7.30;6.17;;;23.50;96.40;;;;;;8290794;28;20204;-76
2021/08/02 11:55:25;;;;;;;8.67;6.43;;;23.90;95.00;;;;;;8289195;28;20431;-74
2021/08/02 11:59:28;;;;;;;11.00;6.93;;;24.10;94.20;;;;;;8292877;28;20239;-75
2021/08/02 12:03:29;;;;;;;6.87;4.80;;;24.30;93.90;;;;;;8284363;28;20487;-76
2021/08/02 12:07:33;;;;;;;7.70;5.20;;;24.60;93.20;;;;;;8279764;28;20455;-75
2021/08/02 12:11:44;;;;;;;6.90;5.10;;;24.50;92.40;;;;;;8289565;28;20205;-75
2021/08/02 12:16:09;;;;;;;7.13;5.00;;;24.70;91.90;;;;;;8279162;28;20454;-75
2021/08/02 12:20:10;;;;;;;6.47;5.70;;;24.80;91.60;;;;;;8302573;28;20458;-75
2021/08/02 12:24:16;;;;;;;9.47;5.03;;;24.70;92.20;;;;;;8284621;28;20458;-75
2021/08/02 12:28:16;;;;;;;4.50;4.13;;;24.70;91.80;;;;;;8285393;28;20506;-75
2021/08/02 12:32:17;;;;;;;8.10;4.33;;;25.10;90.60;;;;;;8281905;28;20443;-75
2021/08/02 12:36:19;;;;;;;9.87;5.70;;;25.20;90.60;;;;;;8284696;28;20189;-75
2021/08/02 12:40:19;;;;;;;14.27;5.07;;;24.90;89.80;;;;;;8291028;28;20683;-74
2021/08/02 12:44:20;;;;;;;5.80;5.20;;;24.40;90.30;;;;;;8275583;28;21011;-73
2021/08/02 12:48:21;;;;;;;8.83;6.10;;;23.90;90.50;;;;;;8288067;28;20204;-75
2021/08/02 12:52:24;;;;;;;8.60;5.67;;;23.40;91.50;;;;;;8298230;28;20185;-75
2021/08/02 12:56:24;;;;;;;8.70;5.20;;;23.20;92.70;;;;;;8286303;28;20184;-75
2021/08/02 13:00:25;;;;;;;16.17;5.97;;;23.30;92.90;;;;;;8283064;28;20550;-76
2021/08/02 13:04:26;;;;;;;6.10;4.67;;;24.20;92.00;;;;;;8282862;28;20319;-75
2021/08/02 13:08:26;;;;;;;6.90;5.23;;;25.00;90.50;;;;;;8297276;28;20686;-75
2021/08/02 13:12:27;;;;;;;5.53;4.07;;;25.10;90.10;;;;;;8282479;28;20232;-76
2021/08/02 13:16:28;;;;;;;4.10;3.70;;;25.00;89.80;;;;;;8292584;28;20180;-74
2021/08/02 13:20:29;;;;;;;4.63;3.60;;;24.80;89.00;;;;;;8289821;28;20184;-75
2021/08/02 13:28:49;;;;;;;4.03;3.70;;;25.20;89.20;;;;;;8282107;28;20471;-75
2021/08/02 13:32:50;;;;;;;7.27;5.40;;;25.70;87.10;;;;;;8280742;28;20451;-75
2021/08/02 13:36:50;;;;;;;4.53;3.80;;;25.40;86.10;;;;;;8282039;28;20184;-76
2021/08/02 13:40:51;;;;;;;4.90;4.40;;;24.80;87.60;;;;;;8278101;28;20181;-74
2021/08/02 13:44:51;;;;;;;4.43;4.07;;;24.50;89.20;;;;;;8280127;28;20235;-76
2021/08/02 13:48:52;;;;;;;8.33;4.70;;;24.20;89.80;;;;;;8286823;28;20226;-74
2021/08/02 13:52:53;;;;;;;8.47;5.27;;;24.20;89.20;;;;;;8281150;28;20667;-75
2021/08/02 13:56:53;;;;;;;6.00;4.47;;;24.10;90.00;;;;;;8279348;28;20176;-74
2021/08/02 14:00:54;;;;;;;9.00;5.80;;;24.10;89.50;;;;;;8283119;28;20223;-74
2021/08/02 14:04:55;;;;;;;6.40;5.83;;;23.90;89.40;;;;;;3513513;28;10001987;-74
2021/08/02 14:08:55;;;;;;;13.57;6.40;;;23.80;89.90;;;;;;8239890;28;20514;-74
2021/08/02 14:12:59;;;;;;;8.97;6.07;;;23.80;90.20;;;;;;8251258;28;20682;-75
2021/08/02 14:17:03;;;;;;;8.83;5.10;;;23.80;90.30;;;;;;8258357;28;20414;-74
2021/08/02 14:21:05;;;;;;;10.87;7.00;;;23.60;90.00;;;;;;8247058;28;20422;-76
2021/08/02 14:25:07;;;;;;;10.37;7.70;;;23.30;90.00;;;;;;8247366;28;20490;-73
2021/08/02 14:29:09;;;;;;;11.00;6.70;;;22.90;90.40;;;;;;8242945;28;20471;-74
2021/08/02 14:33:11;;;;;;;10.97;8.40;;;22.30;91.70;;;;;;8239528;28;20487;-77
2021/08/02 14:37:13;;;;;;;23.07;11.30;;;21.50;94.10;;;;;;8233822;28;20419;-75
2021/08/02 14:41:21;;;;;;;13.27;10.03;;;20.70;96.00;;;;;;8237722;28;20795;-76
2021/08/02 14:45:22;;;;;;;14.03;11.40;;;20.10;97.20;;;;;;8258326;28;20452;-76
2021/08/02 14:49:27;;;;;;;14.80;10.20;;;19.70;98.40;;;;;;8240717;28;20460;-77
2021/08/02 14:53:28;;;;;;;13.80;10.30;;;19.50;99.10;;;;;;8251589;28;20440;-75
2021/08/02 14:57:32;;;;;;;18.00;10.77;;;19.30;99.70;;;;;;8247603;28;20444;-75
2021/08/02 15:01:36;;;;;;;14.13;11.47;;;19.30;99.90;;;;;;8244860;28;20455;-75
2021/08/02 15:05:38;;;;;;;16.37;10.83;;;19.70;99.90;;;;;;8244005;28;20489;-75
2021/08/02 15:09:41;;;;;;;14.10;9.40;;;20.60;99.90;;;;;;8246173;28;20503;-75
2021/08/02 15:13:42;;;;;;;11.00;8.83;;;21.50;99.90;;;;;;8248349;28;20455;-75
2021/08/02 15:17:52;;;;;;;11.13;7.97;;;21.70;98.00;;;;;;8264167;28;20435;-76
2021/08/02 15:21:57;;;;;;;15.57;12.43;;;21.40;97.20;;;;;;8278985;28;20733;-75
2021/08/02 15:26:01;;;;;;;11.63;10.27;;;21.40;97.90;;;;;;8248099;28;20463;-74
2021/08/02 15:30:08;;;;;;;16.70;9.13;;;21.50;97.80;;;;;;8259360;28;20469;-75
2021/08/02 15:34:09;;;;;;;11.57;9.17;;;21.90;97.90;;;;;;8249605;28;20958;-75
2021/08/02 15:38:10;;;;;;;19.43;9.60;;;22.30;96.50;;;;;;8249287;28;20478;-75
2021/08/02 15:42:11;;;;;;;9.53;8.20;;;22.50;96.60;;;;;;8250156;28;20455;-75
2021/08/02 15:46:16;;;;;;;8.43;6.23;;;22.70;95.30;;;;;;8265857;28;20231;-73
2021/08/02 15:50:20;;;;;;;7.67;6.87;;;22.90;94.70;;;;;;8246865;28;21928;-74
2021/08/02 15:54:23;;;;;;;12.33;8.70;;;22.80;94.10;;;;;;8246798;28;20423;-74
2021/08/02 15:58:30;;;;;;;12.20;9.40;;;22.80;94.40;;;;;;8250314;28;21139;-74
2021/08/02 16:02:57;;;;;;;10.47;7.97;;;22.80;94.40;;;;;;8251697;28;20768;-74
2021/08/02 16:07:02;;;;;;;5.40;4.90;;;22.90;94.20;;;;;;8258265;28;20452;-74
2021/08/02 16:11:06;;;;;;;8.63;6.37;;;22.80;93.80;;;;;;8254383;28;20454;-74
2021/08/02 16:15:07;;;;;;;6.87;5.90;;;22.80;93.30;;;;;;8252919;28;20437;-74
2021/08/02 16:19:07;;;;;;;5.00;3.90;;;23.20;93.20;;;;;;8243141;28;20447;-74
2021/08/02 16:23:08;;;;;;;8.30;5.03;;;23.30;91.50;;;;;;8252498;28;20451;-74
2021/08/02 16:27:09;;;;;;;8.33;5.43;;;23.30;91.20;;;;;;8247067;28;20268;-73
2021/08/02 16:31:10;;;;;;;5.87;4.23;;;23.20;91.10;;;;;;8253307;28;20735;-75
2021/08/02 16:35:13;;;;;;;5.10;3.97;;;23.30;91.40;;;;;;8242248;28;20965;-75
2021/08/02 16:39:13;;;;;;;5.50;3.80;;;23.60;91.40;;;;;;8244852;28;20248;-75
2021/08/02 16:43:18;;;;;;;6.27;3.87;;;23.70;90.30;;;;;;8241421;28;20422;-75
2021/08/02 16:47:18;;;;;;;4.63;3.63;;;23.90;89.90;;;;;;8241515;28;20259;-74
2021/08/02 16:51:19;;;;;;;4.07;3.57;;;24.00;89.80;;;;;;8243094;28;20559;-74
2021/08/02 16:55:20;;;;;;;5.20;4.67;;;23.90;88.60;;;;;;8243227;28;20190;-74
2021/08/02 16:59:21;;;;;;;8.37;4.20;;;23.90;88.60;;;;;;8240717;28;20189;-73
2021/08/02 17:03:21;;;;;;;8.73;4.53;;;24.10;88.10;;;;;;8242475;28;20229;-74
2021/08/02 17:07:22;;;;;;;5.77;5.07;;;24.10;87.80;;;;;;8261198;28;20455;-74
2021/08/02 17:11:22;;;;;;;6.10;4.60;;;24.00;87.30;;;;;;8258519;28;20205;-74
2021/08/02 17:15:23;;;;;;;6.20;4.73;;;23.90;87.20;;;;;;8236990;28;20555;-73
2021/08/02 17:19:24;;;;;;;6.83;4.83;;;23.90;87.50;;;;;;8244188;28;20189;-73
2021/08/02 17:23:26;;;;;;;5.37;4.60;;;23.80;86.90;;;;;;8256146;28;20189;-74
2021/08/02 17:27:26;;;;;;;4.00;3.67;;;23.50;87.00;;;;;;8250426;28;20196;-74
2021/08/02 17:31:27;;;;;;;8.97;3.60;;;23.40;88.60;;;;;;8246427;28;20464;-74
2021/08/02 17:35:33;;;;;;;5.87;3.70;;;23.50;86.80;;;;;;8247953;28;20263;-73
2021/08/02 17:39:34;;;;;;;5.60;3.30;;;23.50;85.40;;;;;;8242849;28;20193;-74
2021/08/02 17:43:37;;;;;;;8.73;4.07;;;23.30;82.50;;;;;;8261901;28;20453;-74
2021/08/02 17:47:38;;;;;;;5.10;4.00;;;22.70;84.50;;;;;;8235503;28;20186;-74
2021/08/02 17:51:39;;;;;;;7.67;5.13;;;22.30;87.40;;;;;;8246697;28;20438;-74
2021/08/02 17:55:40;;;;;;;6.07;4.37;;;22.00;89.50;;;;;;8242461;28;20200;-74
2021/08/02 17:59:40;;;;;;;7.30;4.60;;;21.80;90.40;;;;;;8250882;28;20419;-73
2021/08/02 18:03:42;;;;;;;8.83;4.63;;;21.60;90.90;;;;;;8251770;28;20227;-74
2021/08/02 18:07:42;;;;;;;6.90;4.53;;;21.40;91.50;;;;;;8239226;28;20272;-74
2021/08/02 18:11:45;;;;;;;8.40;5.13;;;21.40;91.80;;;;;;8242939;28;20475;-74
2021/08/02 18:15:46;;;;;;;11.53;6.60;;;21.30;92.10;;;;;;8239217;28;21115;-74
2021/08/02 18:19:46;;;;;;;16.23;6.80;;;21.10;92.60;;;;;;8252812;28;21327;-75
2021/08/02 18:23:48;;;;;;;6.93;6.23;;;21.00;93.00;;;;;;8267480;28;20612;-75
2021/08/02 18:27:49;;;;;;;10.23;5.37;;;20.80;93.00;;;;;;8274497;28;20186;-74
2021/08/02 18:31:49;;;;;;;8.77;5.70;;;20.60;93.40;;;;;;8251553;28;20470;-73
2021/08/02 18:35:50;;;;;;;7.83;5.37;;;20.50;93.90;;;;;;8259099;28;20181;-73
2021/08/02 18:39:50;;;;;;;6.83;5.43;;;20.30;94.00;;;;;;8267341;28;21182;-75
2021/08/02 18:43:51;;;;;;;5.73;4.77;;;20.10;94.20;;;;;;8251489;28;20606;-74
2021/08/02 18:47:52;;;;;;;6.90;4.47;;;19.90;95.20;;;;;;8250892;28;20211;-74
2021/08/02 18:51:52;;;;;;;8.40;6.00;;;19.80;94.70;;;;;;8259645;28;20202;-75
2021/08/02 18:55:53;;;;;;;14.23;5.80;;;19.60;95.40;;;;;;8253916;28;20599;-74
2021/08/02 18:59:54;;;;;;;8.37;5.00;;;19.50;95.50;;;;;;8263518;28;20220;-74
2021/08/02 19:03:54;;;;;;;10.27;6.53;;;19.40;95.60;;;;;;8264260;28;20719;-73
2021/08/02 19:07:58;;;;;;;6.20;5.60;;;19.20;96.10;;;;;;8265408;28;20198;-74
2021/08/02 19:12:20;;;;;;;5.53;5.03;;;19.10;96.30;;;;;;8262989;28;20287;-73
2021/08/02 19:16:24;;;;;;;7.70;5.77;;;18.90;97.00;;;;;;8257100;28;20567;-73
2021/08/02 19:20:25;;;;;;;8.77;5.60;;;18.70;97.30;;;;;;8260955;28;20444;-74
2021/08/02 19:24:26;;;;;;;10.47;6.47;;;18.60;97.50;;;;;;8267601;28;20461;-74
2021/08/02 19:28:30;;;;;;;11.07;6.90;;;18.40;97.80;;;;;;8269160;28;20198;-73
2021/08/02 19:32:31;;;;;;;11.33;6.67;;;18.30;98.40;;;;;;8261521;28;20458;-74
2021/08/02 19:36:33;;;;;;;10.32;7.82;;;18.20;99.00;;;;;;8258494;28;20533;-74
2021/08/02 19:40:33;;;;;;;9.03;6.50;;;18.00;99.70;;;;;;8281093;28;20215;-74
2021/08/02 19:44:55;;;;;;;8.77;6.70;;;18.00;99.60;;;;;;8257299;28;20452;-74
2021/08/02 19:49:05;;;;;;;7.10;6.37;;;17.90;99.50;;;;;;8258434;28;20290;-74
2021/08/02 19:53:14;;;;;;;13.80;7.27;;;17.80;99.80;;;;;;8260804;28;20451;-73
2021/08/02 19:57:20;;;;;;;7.60;6.80;;;17.70;99.90;;;;;;8258331;28;20446;-74
2021/08/02 20:01:21;;;;;;;8.67;6.67;;;17.60;99.90;;;;;;8256588;28;20451;-73
2021/08/02 20:05:22;;;;;;;11.30;6.60;;;17.50;99.90;;;;;;8260456;28;20883;-73
2021/08/02 20:09:23;;;;;;;11.90;6.53;;;17.40;99.90;;;;;;8256852;28;20225;-74
2021/08/02 20:13:25;;;;;;;11.18;8.18;;;17.30;99.90;;;;;;8269069;28;21099;-73
2021/08/02 20:17:28;;;;;;;12.50;8.90;;;17.40;99.90;;;;;;8266826;28;20420;-74
2021/08/02 20:21:33;;;;;;;13.60;10.00;;;17.40;99.90;;;;;;8256373;28;20450;-74
2021/08/02 20:25:38;;;;;;;11.50;9.97;;;17.40;99.90;;;;;;8251160;28;20491;-76
2021/08/02 20:29:47;;;;;;;16.80;11.80;;;17.40;99.90;;;;;;8255436;28;20992;-75
2021/08/02 20:33:50;;;;;;;16.53;13.60;;;17.40;99.90;;;;;;8284584;28;20556;-74
2021/08/02 20:37:55;;;;;;;15.70;11.03;;;17.30;99.90;;;;;;8256765;28;20455;-75
2021/08/02 20:42:00;;;;;;;13.10;11.77;;;17.20;99.90;;;;;;8271268;28;20441;-73
2021/08/02 20:46:01;;;;;;;19.73;11.63;;;17.10;99.90;;;;;;8254762;28;20930;-73
2021/08/02 20:50:06;;;;;;;13.67;11.80;;;17.00;99.90;;;;;;8252467;28;20478;-74
2021/08/02 20:54:09;;;;;;;13.73;11.20;;;17.00;99.90;;;;;;8253596;28;20222;-74
2021/08/02 20:58:10;;;;;;;13.80;11.97;;;17.00;99.90;;;;;;8254900;28;20445;-74